sensor_id;sensor_type;location;lat;lon;timestamp;P1;durP1;ratioP1;P2;durP2;ratioP2
60612;SDS011;46443;59.792;17.626;2022-10-16T00:01:14;41.03;;;20.25;;
60612;SDS011;46443;59.792;17.626;2022-10-16T00:03:41;40.60;;;20.83;;
60612;SDS011;46443;59.792;17.626;2022-10-16T00:06:07;37.97;;;18.20;;
60612;SDS011;46443;59.792;17.626;2022-10-16T00:08:34;38.50;;;19.23;;
60612;SDS011;46443;59.792;17.626;2022-10-16T00:11:07;42.67;;;20.17;;
60612;SDS011;46443;59.792;17.626;2022-10-16T00:13:34;38.90;;;18.17;;
60612;SDS011;46443;59.792;17.626;2022-10-16T00:16:00;39.23;;;18.67;;
60612;SDS011;46443;59.792;17.626;2022-10-16T00:18:27;41.87;;;19.10;;
60612;SDS011;46443;59.792;17.626;2022-10-16T00:20:54;43.07;;;18.60;;
60612;SDS011;46443;59.792;17.626;2022-10-16T00:23:20;35.73;;;17.60;;
60612;SDS011;46443;59.792;17.626;2022-10-16T00:25:56;32.93;;;17.70;;
60612;SDS011;46443;59.792;17.626;2022-10-16T00:28:22;27.40;;;15.30;;
60612;SDS011;46443;59.792;17.626;2022-10-16T00:30:48;31.57;;;16.50;;
60612;SDS011;46443;59.792;17.626;2022-10-16T00:33:14;34.73;;;17.07;;
60612;SDS011;46443;59.792;17.626;2022-10-16T00:35:40;30.87;;;15.60;;
60612;SDS011;46443;59.792;17.626;2022-10-16T00:38:06;31.93;;;16.43;;
60612;SDS011;46443;59.792;17.626;2022-10-16T00:40:32;31.80;;;15.87;;
60612;SDS011;46443;59.792;17.626;2022-10-16T00:42:58;30.10;;;14.60;;
60612;SDS011;46443;59.792;17.626;2022-10-16T00:45:24;28.17;;;15.60;;
60612;SDS011;46443;59.792;17.626;2022-10-16T00:47:51;29.80;;;14.47;;
60612;SDS011;46443;59.792;17.626;2022-10-16T00:52:47;27.37;;;14.40;;
60612;SDS011;46443;59.792;17.626;2022-10-16T00:57:40;25.50;;;13.63;;
60612;SDS011;46443;59.792;17.626;2022-10-16T01:00:08;26.97;;;13.33;;
60612;SDS011;46443;59.792;17.626;2022-10-16T01:02:34;26.40;;;13.63;;
60612;SDS011;46443;59.792;17.626;2022-10-16T01:05:00;30.70;;;13.90;;
60612;SDS011;46443;59.792;17.626;2022-10-16T01:12:49;25.03;;;13.73;;
60612;SDS011;46443;59.792;17.626;2022-10-16T01:17:49;25.57;;;12.87;;
60612;SDS011;46443;59.792;17.626;2022-10-16T01:20:20;20.77;;;12.43;;
60612;SDS011;46443;59.792;17.626;2022-10-16T01:23:07;22.63;;;13.33;;
60612;SDS011;46443;59.792;17.626;2022-10-16T01:28:08;22.50;;;12.23;;
60612;SDS011;46443;59.792;17.626;2022-10-16T01:30:37;19.17;;;11.40;;
60612;SDS011;46443;59.792;17.626;2022-10-16T01:33:08;21.23;;;12.83;;
60612;SDS011;46443;59.792;17.626;2022-10-16T01:35:36;19.30;;;11.00;;
60612;SDS011;46443;59.792;17.626;2022-10-16T01:38:04;18.90;;;11.03;;
60612;SDS011;46443;59.792;17.626;2022-10-16T01:40:32;19.43;;;10.57;;
60612;SDS011;46443;59.792;17.626;2022-10-16T01:43:00;18.97;;;11.33;;
60612;SDS011;46443;59.792;17.626;2022-10-16T01:45:26;19.60;;;10.90;;
60612;SDS011;46443;59.792;17.626;2022-10-16T01:47:54;21.90;;;11.73;;
60612;SDS011;46443;59.792;17.626;2022-10-16T01:50:20;20.73;;;11.87;;
60612;SDS011;46443;59.792;17.626;2022-10-16T01:52:48;20.53;;;10.60;;
60612;SDS011;46443;59.792;17.626;2022-10-16T01:55:17;25.33;;;11.83;;
60612;SDS011;46443;59.792;17.626;2022-10-16T01:57:44;21.30;;;12.13;;
60612;SDS011;46443;59.792;17.626;2022-10-16T02:00:12;18.97;;;10.93;;
60612;SDS011;46443;59.792;17.626;2022-10-16T02:02:39;16.50;;;10.80;;
60612;SDS011;46443;59.792;17.626;2022-10-16T02:07:39;16.57;;;10.40;;
60612;SDS011;46443;59.792;17.626;2022-10-16T02:10:07;15.40;;;9.50;;
60612;SDS011;46443;59.792;17.626;2022-10-16T02:12:33;14.03;;;9.30;;
60612;SDS011;46443;59.792;17.626;2022-10-16T02:15:01;16.03;;;9.37;;
60612;SDS011;46443;59.792;17.626;2022-10-16T02:17:28;14.77;;;9.27;;
60612;SDS011;46443;59.792;17.626;2022-10-16T02:19:54;16.53;;;9.13;;
60612;SDS011;46443;59.792;17.626;2022-10-16T02:22:26;17.23;;;9.63;;
60612;SDS011;46443;59.792;17.626;2022-10-16T02:30:06;17.30;;;9.97;;
60612;SDS011;46443;59.792;17.626;2022-10-16T02:32:33;19.13;;;10.33;;
60612;SDS011;46443;59.792;17.626;2022-10-16T02:35:00;16.63;;;9.73;;
60612;SDS011;46443;59.792;17.626;2022-10-16T02:37:27;20.07;;;12.10;;
60612;SDS011;46443;59.792;17.626;2022-10-16T02:39:54;16.63;;;10.67;;
60612;SDS011;46443;59.792;17.626;2022-10-16T02:42:20;17.93;;;10.87;;
60612;SDS011;46443;59.792;17.626;2022-10-16T02:44:46;16.60;;;10.20;;
60612;SDS011;46443;59.792;17.626;2022-10-16T02:47:12;18.00;;;10.93;;
60612;SDS011;46443;59.792;17.626;2022-10-16T02:49:38;20.40;;;10.60;;
60612;SDS011;46443;59.792;17.626;2022-10-16T02:52:04;15.93;;;10.33;;
60612;SDS011;46443;59.792;17.626;2022-10-16T02:54:30;19.20;;;11.80;;
60612;SDS011;46443;59.792;17.626;2022-10-16T02:56:56;20.60;;;11.30;;
60612;SDS011;46443;59.792;17.626;2022-10-16T02:59:22;22.60;;;12.27;;
60612;SDS011;46443;59.792;17.626;2022-10-16T03:01:48;20.63;;;12.03;;
60612;SDS011;46443;59.792;17.626;2022-10-16T03:04:15;21.53;;;11.23;;
60612;SDS011;46443;59.792;17.626;2022-10-16T03:06:41;21.83;;;12.53;;
60612;SDS011;46443;59.792;17.626;2022-10-16T03:09:07;22.53;;;11.47;;
60612;SDS011;46443;59.792;17.626;2022-10-16T03:11:33;21.63;;;11.57;;
60612;SDS011;46443;59.792;17.626;2022-10-16T03:13:59;22.17;;;12.73;;
60612;SDS011;46443;59.792;17.626;2022-10-16T03:16:25;22.30;;;12.33;;
60612;SDS011;46443;59.792;17.626;2022-10-16T03:18:51;21.53;;;12.30;;
60612;SDS011;46443;59.792;17.626;2022-10-16T03:21:17;21.00;;;11.37;;
60612;SDS011;46443;59.792;17.626;2022-10-16T03:23:43;24.73;;;12.13;;
60612;SDS011;46443;59.792;17.626;2022-10-16T03:26:09;22.70;;;12.00;;
60612;SDS011;46443;59.792;17.626;2022-10-16T03:28:35;21.63;;;10.60;;
60612;SDS011;46443;59.792;17.626;2022-10-16T03:31:01;21.13;;;11.87;;
60612;SDS011;46443;59.792;17.626;2022-10-16T03:33:27;22.53;;;11.87;;
60612;SDS011;46443;59.792;17.626;2022-10-16T03:35:53;21.70;;;11.20;;
60612;SDS011;46443;59.792;17.626;2022-10-16T03:38:20;18.67;;;11.03;;
60612;SDS011;46443;59.792;17.626;2022-10-16T03:40:46;20.77;;;11.70;;
60612;SDS011;46443;59.792;17.626;2022-10-16T03:43:12;22.47;;;10.83;;
60612;SDS011;46443;59.792;17.626;2022-10-16T03:45:38;20.40;;;10.93;;
60612;SDS011;46443;59.792;17.626;2022-10-16T03:48:05;20.67;;;10.77;;
60612;SDS011;46443;59.792;17.626;2022-10-16T03:50:31;19.00;;;10.20;;
60612;SDS011;46443;59.792;17.626;2022-10-16T03:52:57;18.70;;;10.50;;
60612;SDS011;46443;59.792;17.626;2022-10-16T03:55:23;16.80;;;9.60;;
60612;SDS011;46443;59.792;17.626;2022-10-16T03:57:49;17.70;;;10.83;;
60612;SDS011;46443;59.792;17.626;2022-10-16T04:00:15;18.37;;;10.00;;
60612;SDS011;46443;59.792;17.626;2022-10-16T04:02:41;17.43;;;10.73;;
60612;SDS011;46443;59.792;17.626;2022-10-16T04:05:07;17.10;;;10.17;;
60612;SDS011;46443;59.792;17.626;2022-10-16T04:07:33;18.07;;;9.90;;
60612;SDS011;46443;59.792;17.626;2022-10-16T04:09:59;17.00;;;10.80;;
60612;SDS011;46443;59.792;17.626;2022-10-16T04:12:26;19.97;;;9.43;;
60612;SDS011;46443;59.792;17.626;2022-10-16T04:14:52;21.23;;;11.50;;
60612;SDS011;46443;59.792;17.626;2022-10-16T04:17:18;15.80;;;9.67;;
60612;SDS011;46443;59.792;17.626;2022-10-16T04:19:44;17.73;;;10.07;;
60612;SDS011;46443;59.792;17.626;2022-10-16T04:22:10;17.23;;;10.10;;
60612;SDS011;46443;59.792;17.626;2022-10-16T04:24:36;17.97;;;9.50;;
60612;SDS011;46443;59.792;17.626;2022-10-16T04:27:02;19.37;;;9.93;;
60612;SDS011;46443;59.792;17.626;2022-10-16T04:29:28;18.87;;;9.87;;
60612;SDS011;46443;59.792;17.626;2022-10-16T04:31:54;15.57;;;9.30;;
60612;SDS011;46443;59.792;17.626;2022-10-16T04:34:20;15.70;;;9.10;;
60612;SDS011;46443;59.792;17.626;2022-10-16T04:36:47;18.30;;;8.93;;
60612;SDS011;46443;59.792;17.626;2022-10-16T04:39:16;14.63;;;8.05;;
60612;SDS011;46443;59.792;17.626;2022-10-16T04:41:42;15.10;;;8.70;;
60612;SDS011;46443;59.792;17.626;2022-10-16T04:44:08;12.57;;;7.93;;
60612;SDS011;46443;59.792;17.626;2022-10-16T04:46:34;14.37;;;8.23;;
60612;SDS011;46443;59.792;17.626;2022-10-16T04:49:00;13.07;;;8.50;;
60612;SDS011;46443;59.792;17.626;2022-10-16T04:51:26;10.50;;;6.67;;
60612;SDS011;46443;59.792;17.626;2022-10-16T04:53:53;9.83;;;6.70;;
60612;SDS011;46443;59.792;17.626;2022-10-16T04:56:20;12.97;;;6.97;;
60612;SDS011;46443;59.792;17.626;2022-10-16T04:58:46;12.33;;;7.00;;
60612;SDS011;46443;59.792;17.626;2022-10-16T05:01:12;10.33;;;6.57;;
60612;SDS011;46443;59.792;17.626;2022-10-16T05:03:38;10.00;;;6.07;;
60612;SDS011;46443;59.792;17.626;2022-10-16T05:06:05;12.43;;;6.33;;
60612;SDS011;46443;59.792;17.626;2022-10-16T05:08:31;9.60;;;6.33;;
60612;SDS011;46443;59.792;17.626;2022-10-16T05:10:57;10.90;;;6.10;;
60612;SDS011;46443;59.792;17.626;2022-10-16T05:13:23;9.40;;;5.70;;
60612;SDS011;46443;59.792;17.626;2022-10-16T05:15:49;8.63;;;5.77;;
60612;SDS011;46443;59.792;17.626;2022-10-16T05:18:16;9.93;;;6.00;;
60612;SDS011;46443;59.792;17.626;2022-10-16T05:20:42;9.83;;;6.20;;
60612;SDS011;46443;59.792;17.626;2022-10-16T05:23:08;9.07;;;6.50;;
60612;SDS011;46443;59.792;17.626;2022-10-16T05:25:35;9.23;;;6.00;;
60612;SDS011;46443;59.792;17.626;2022-10-16T05:28:01;8.43;;;5.73;;
60612;SDS011;46443;59.792;17.626;2022-10-16T05:30:27;8.63;;;5.77;;
60612;SDS011;46443;59.792;17.626;2022-10-16T05:32:53;9.93;;;5.90;;
60612;SDS011;46443;59.792;17.626;2022-10-16T05:35:20;8.90;;;5.27;;
60612;SDS011;46443;59.792;17.626;2022-10-16T05:37:46;8.53;;;5.50;;
60612;SDS011;46443;59.792;17.626;2022-10-16T05:40:12;11.27;;;5.50;;
60612;SDS011;46443;59.792;17.626;2022-10-16T05:42:39;9.23;;;5.63;;
60612;SDS011;46443;59.792;17.626;2022-10-16T05:45:11;10.07;;;5.70;;
60612;SDS011;46443;59.792;17.626;2022-10-16T05:47:37;10.47;;;6.07;;
60612;SDS011;46443;59.792;17.626;2022-10-16T05:50:04;12.50;;;6.27;;
60612;SDS011;46443;59.792;17.626;2022-10-16T05:52:30;8.70;;;5.53;;
60612;SDS011;46443;59.792;17.626;2022-10-16T05:54:56;10.00;;;5.73;;
60612;SDS011;46443;59.792;17.626;2022-10-16T05:57:22;10.10;;;5.47;;
60612;SDS011;46443;59.792;17.626;2022-10-16T05:59:48;9.20;;;5.77;;
60612;SDS011;46443;59.792;17.626;2022-10-16T06:02:14;8.87;;;6.17;;
60612;SDS011;46443;59.792;17.626;2022-10-16T06:04:40;10.70;;;6.07;;
60612;SDS011;46443;59.792;17.626;2022-10-16T06:07:06;10.13;;;6.03;;
60612;SDS011;46443;59.792;17.626;2022-10-16T06:09:32;10.43;;;5.73;;
60612;SDS011;46443;59.792;17.626;2022-10-16T06:11:58;10.80;;;5.20;;
60612;SDS011;46443;59.792;17.626;2022-10-16T06:14:24;9.63;;;6.03;;
60612;SDS011;46443;59.792;17.626;2022-10-16T06:16:50;8.87;;;5.57;;
60612;SDS011;46443;59.792;17.626;2022-10-16T06:19:16;9.67;;;5.40;;
60612;SDS011;46443;59.792;17.626;2022-10-16T06:21:43;12.80;;;6.20;;
60612;SDS011;46443;59.792;17.626;2022-10-16T06:24:10;9.23;;;5.87;;
60612;SDS011;46443;59.792;17.626;2022-10-16T06:26:36;8.87;;;5.80;;
60612;SDS011;46443;59.792;17.626;2022-10-16T06:29:03;8.47;;;5.53;;
60612;SDS011;46443;59.792;17.626;2022-10-16T06:31:29;9.23;;;5.47;;
60612;SDS011;46443;59.792;17.626;2022-10-16T06:33:58;8.50;;;5.57;;
60612;SDS011;46443;59.792;17.626;2022-10-16T06:36:24;9.27;;;5.67;;
60612;SDS011;46443;59.792;17.626;2022-10-16T06:38:51;8.87;;;4.90;;
60612;SDS011;46443;59.792;17.626;2022-10-16T06:41:18;9.77;;;5.20;;
60612;SDS011;46443;59.792;17.626;2022-10-16T06:43:44;8.37;;;5.20;;
60612;SDS011;46443;59.792;17.626;2022-10-16T06:46:11;8.37;;;5.00;;
60612;SDS011;46443;59.792;17.626;2022-10-16T06:48:37;7.30;;;5.03;;
60612;SDS011;46443;59.792;17.626;2022-10-16T06:51:04;9.27;;;5.13;;
60612;SDS011;46443;59.792;17.626;2022-10-16T06:53:32;8.10;;;5.33;;
60612;SDS011;46443;59.792;17.626;2022-10-16T06:56:06;8.83;;;5.50;;
60612;SDS011;46443;59.792;17.626;2022-10-16T06:58:32;9.13;;;5.67;;
60612;SDS011;46443;59.792;17.626;2022-10-16T07:00:58;8.30;;;5.27;;
60612;SDS011;46443;59.792;17.626;2022-10-16T07:03:24;9.13;;;5.37;;
60612;SDS011;46443;59.792;17.626;2022-10-16T07:05:50;9.53;;;5.07;;
60612;SDS011;46443;59.792;17.626;2022-10-16T07:08:16;10.07;;;6.20;;
60612;SDS011;46443;59.792;17.626;2022-10-16T07:10:42;7.83;;;4.83;;
60612;SDS011;46443;59.792;17.626;2022-10-16T07:13:08;10.60;;;5.77;;
60612;SDS011;46443;59.792;17.626;2022-10-16T07:15:38;9.45;;;5.03;;
60612;SDS011;46443;59.792;17.626;2022-10-16T07:18:04;10.10;;;5.50;;
60612;SDS011;46443;59.792;17.626;2022-10-16T07:20:30;10.33;;;6.77;;
60612;SDS011;46443;59.792;17.626;2022-10-16T07:22:56;7.73;;;4.70;;
60612;SDS011;46443;59.792;17.626;2022-10-16T07:25:22;8.20;;;5.27;;
60612;SDS011;46443;59.792;17.626;2022-10-16T07:27:48;9.47;;;5.93;;
60612;SDS011;46443;59.792;17.626;2022-10-16T07:30:14;8.47;;;6.47;;
60612;SDS011;46443;59.792;17.626;2022-10-16T07:32:40;7.37;;;5.50;;
60612;SDS011;46443;59.792;17.626;2022-10-16T07:35:06;10.87;;;7.60;;
60612;SDS011;46443;59.792;17.626;2022-10-16T07:37:32;11.70;;;8.73;;
60612;SDS011;46443;59.792;17.626;2022-10-16T07:39:58;10.03;;;7.20;;
60612;SDS011;46443;59.792;17.626;2022-10-16T07:42:24;11.93;;;7.70;;
60612;SDS011;46443;59.792;17.626;2022-10-16T07:44:50;10.17;;;6.17;;
60612;SDS011;46443;59.792;17.626;2022-10-16T07:47:16;8.73;;;6.00;;
60612;SDS011;46443;59.792;17.626;2022-10-16T07:49:42;9.47;;;6.37;;
60612;SDS011;46443;59.792;17.626;2022-10-16T07:52:08;8.60;;;6.10;;
60612;SDS011;46443;59.792;17.626;2022-10-16T07:54:34;11.73;;;8.40;;
60612;SDS011;46443;59.792;17.626;2022-10-16T07:57:00;11.83;;;8.87;;
60612;SDS011;46443;59.792;17.626;2022-10-16T07:59:26;12.40;;;7.83;;
60612;SDS011;46443;59.792;17.626;2022-10-16T08:01:52;10.87;;;7.07;;
60612;SDS011;46443;59.792;17.626;2022-10-16T08:04:18;9.67;;;6.07;;
60612;SDS011;46443;59.792;17.626;2022-10-16T08:06:44;10.67;;;7.53;;
60612;SDS011;46443;59.792;17.626;2022-10-16T08:09:10;13.80;;;9.03;;
60612;SDS011;46443;59.792;17.626;2022-10-16T08:11:36;14.13;;;9.83;;
60612;SDS011;46443;59.792;17.626;2022-10-16T08:14:02;12.03;;;8.43;;
60612;SDS011;46443;59.792;17.626;2022-10-16T08:16:28;8.30;;;5.60;;
60612;SDS011;46443;59.792;17.626;2022-10-16T08:18:55;12.37;;;8.30;;
60612;SDS011;46443;59.792;17.626;2022-10-16T08:21:21;16.80;;;13.13;;
60612;SDS011;46443;59.792;17.626;2022-10-16T08:23:48;18.13;;;12.70;;
60612;SDS011;46443;59.792;17.626;2022-10-16T08:26:14;12.57;;;9.43;;
60612;SDS011;46443;59.792;17.626;2022-10-16T08:28:40;10.00;;;6.93;;
60612;SDS011;46443;59.792;17.626;2022-10-16T08:33:33;18.17;;;9.93;;
60612;SDS011;46443;59.792;17.626;2022-10-16T08:36:00;13.47;;;9.37;;
60612;SDS011;46443;59.792;17.626;2022-10-16T08:38:26;12.30;;;8.33;;
60612;SDS011;46443;59.792;17.626;2022-10-16T08:40:52;11.50;;;7.07;;
60612;SDS011;46443;59.792;17.626;2022-10-16T08:43:36;15.20;;;8.20;;
60612;SDS011;46443;59.792;17.626;2022-10-16T08:51:06;9.00;;;6.30;;
60612;SDS011;46443;59.792;17.626;2022-10-16T08:53:44;6.47;;;4.43;;
60612;SDS011;46443;59.792;17.626;2022-10-16T08:56:12;7.43;;;4.70;;
60612;SDS011;46443;59.792;17.626;2022-10-16T08:58:38;8.07;;;4.53;;
60612;SDS011;46443;59.792;17.626;2022-10-16T09:01:04;10.67;;;5.77;;
60612;SDS011;46443;59.792;17.626;2022-10-16T09:03:43;8.47;;;3.53;;
60612;SDS011;46443;59.792;17.626;2022-10-16T09:09:08;5.30;;;3.50;;
60612;SDS011;46443;59.792;17.626;2022-10-16T09:16:33;10.93;;;6.60;;
60612;SDS011;46443;59.792;17.626;2022-10-16T09:21:28;8.10;;;3.93;;
60612;SDS011;46443;59.792;17.626;2022-10-16T09:23:59;6.80;;;4.10;;
60612;SDS011;46443;59.792;17.626;2022-10-16T09:26:30;9.20;;;5.27;;
60612;SDS011;46443;59.792;17.626;2022-10-16T09:28:56;9.10;;;4.70;;
60612;SDS011;46443;59.792;17.626;2022-10-16T09:31:22;7.33;;;4.00;;
60612;SDS011;46443;59.792;17.626;2022-10-16T09:33:50;6.27;;;4.00;;
60612;SDS011;46443;59.792;17.626;2022-10-16T09:36:17;9.73;;;5.53;;
60612;SDS011;46443;59.792;17.626;2022-10-16T09:38:43;7.97;;;4.67;;
60612;SDS011;46443;59.792;17.626;2022-10-16T09:43:39;8.97;;;3.93;;
60612;SDS011;46443;59.792;17.626;2022-10-16T09:46:07;7.03;;;3.73;;
60612;SDS011;46443;59.792;17.626;2022-10-16T09:48:36;7.20;;;3.57;;
60612;SDS011;46443;59.792;17.626;2022-10-16T09:51:03;6.35;;;3.80;;
60612;SDS011;46443;59.792;17.626;2022-10-16T09:53:40;6.90;;;3.83;;
60612;SDS011;46443;59.792;17.626;2022-10-16T09:56:06;7.57;;;4.13;;
60612;SDS011;46443;59.792;17.626;2022-10-16T09:58:33;8.03;;;4.23;;
60612;SDS011;46443;59.792;17.626;2022-10-16T10:01:00;7.43;;;3.53;;
60612;SDS011;46443;59.792;17.626;2022-10-16T10:03:39;7.13;;;3.27;;
60612;SDS011;46443;59.792;17.626;2022-10-16T10:06:19;7.70;;;3.83;;
60612;SDS011;46443;59.792;17.626;2022-10-16T10:08:56;5.97;;;3.40;;
60612;SDS011;46443;59.792;17.626;2022-10-16T10:11:36;6.60;;;3.20;;
60612;SDS011;46443;59.792;17.626;2022-10-16T10:14:06;6.88;;;3.35;;
60612;SDS011;46443;59.792;17.626;2022-10-16T10:16:35;6.53;;;2.80;;
60612;SDS011;46443;59.792;17.626;2022-10-16T10:19:01;6.10;;;2.87;;
60612;SDS011;46443;59.792;17.626;2022-10-16T10:21:27;7.43;;;3.80;;
60612;SDS011;46443;59.792;17.626;2022-10-16T10:23:57;5.60;;;3.00;;
60612;SDS011;46443;59.792;17.626;2022-10-16T10:26:24;6.55;;;2.70;;
60612;SDS011;46443;59.792;17.626;2022-10-16T10:28:55;6.03;;;2.87;;
60612;SDS011;46443;59.792;17.626;2022-10-16T10:36:40;5.77;;;3.17;;
60612;SDS011;46443;59.792;17.626;2022-10-16T10:41:53;5.38;;;3.10;;
60612;SDS011;46443;59.792;17.626;2022-10-16T10:46:53;5.72;;;3.00;;
60612;SDS011;46443;59.792;17.626;2022-10-16T10:54:28;6.60;;;2.97;;
60612;SDS011;46443;59.792;17.626;2022-10-16T10:57:02;5.65;;;3.22;;
60612;SDS011;46443;59.792;17.626;2022-10-16T11:01:55;3.70;;;2.20;;
60612;SDS011;46443;59.792;17.626;2022-10-16T11:07:57;5.85;;;2.55;;
60612;SDS011;46443;59.792;17.626;2022-10-16T11:09:57;5.97;;;2.40;;
60612;SDS011;46443;59.792;17.626;2022-10-16T11:15:25;6.95;;;2.42;;
60612;SDS011;46443;59.792;17.626;2022-10-16T11:17:50;5.97;;;2.55;;
60612;SDS011;46443;59.792;17.626;2022-10-16T11:20:23;8.10;;;2.50;;
60612;SDS011;46443;59.792;17.626;2022-10-16T11:22:51;4.22;;;2.25;;
60612;SDS011;46443;59.792;17.626;2022-10-16T11:30:22;6.50;;;2.20;;
60612;SDS011;46443;59.792;17.626;2022-10-16T11:37:59;5.73;;;2.53;;
60612;SDS011;46443;59.792;17.626;2022-10-16T11:40:29;9.57;;;2.77;;
60612;SDS011;46443;59.792;17.626;2022-10-16T11:43:01;7.30;;;2.60;;
60612;SDS011;46443;59.792;17.626;2022-10-16T11:45:34;7.80;;;2.70;;
60612;SDS011;46443;59.792;17.626;2022-10-16T11:55:47;8.57;;;2.87;;
60612;SDS011;46443;59.792;17.626;2022-10-16T11:58:20;4.37;;;2.40;;
60612;SDS011;46443;59.792;17.626;2022-10-16T12:03:20;10.77;;;2.70;;
60612;SDS011;46443;59.792;17.626;2022-10-16T12:08:14;6.27;;;2.37;;
60612;SDS011;46443;59.792;17.626;2022-10-16T12:10:43;5.97;;;2.50;;
60612;SDS011;46443;59.792;17.626;2022-10-16T12:18:32;6.87;;;2.73;;
60612;SDS011;46443;59.792;17.626;2022-10-16T12:20:58;12.47;;;3.27;;
60612;SDS011;46443;59.792;17.626;2022-10-16T12:23:29;7.73;;;2.80;;
60612;SDS011;46443;59.792;17.626;2022-10-16T12:25:57;7.80;;;2.70;;
60612;SDS011;46443;59.792;17.626;2022-10-16T12:28:27;4.67;;;2.40;;
60612;SDS011;46443;59.792;17.626;2022-10-16T12:30:54;8.27;;;2.53;;
60612;SDS011;46443;59.792;17.626;2022-10-16T12:33:22;7.27;;;2.70;;
60612;SDS011;46443;59.792;17.626;2022-10-16T12:35:49;7.47;;;2.77;;
60612;SDS011;46443;59.792;17.626;2022-10-16T12:38:17;8.73;;;2.90;;
60612;SDS011;46443;59.792;17.626;2022-10-16T12:40:44;5.43;;;2.90;;
60612;SDS011;46443;59.792;17.626;2022-10-16T12:43:25;5.13;;;2.40;;
60612;SDS011;46443;59.792;17.626;2022-10-16T12:45:58;7.05;;;2.97;;
60612;SDS011;46443;59.792;17.626;2022-10-16T12:48:25;7.33;;;3.40;;
60612;SDS011;46443;59.792;17.626;2022-10-16T12:50:51;5.27;;;2.60;;
60612;SDS011;46443;59.792;17.626;2022-10-16T12:53:26;8.73;;;3.10;;
60612;SDS011;46443;59.792;17.626;2022-10-16T12:56:09;7.27;;;2.83;;
60612;SDS011;46443;59.792;17.626;2022-10-16T13:12:28;8.23;;;3.57;;
60612;SDS011;46443;59.792;17.626;2022-10-16T13:22:48;9.23;;;4.63;;
60612;SDS011;46443;59.792;17.626;2022-10-16T13:27:59;8.90;;;4.30;;
60612;SDS011;46443;59.792;17.626;2022-10-16T13:30:26;8.20;;;4.17;;
60612;SDS011;46443;59.792;17.626;2022-10-16T13:33:04;11.13;;;3.83;;
60612;SDS011;46443;59.792;17.626;2022-10-16T13:35:31;10.60;;;4.00;;
60612;SDS011;46443;59.792;17.626;2022-10-16T13:38:05;6.97;;;3.80;;
60612;SDS011;46443;59.792;17.626;2022-10-16T13:40:31;9.30;;;4.13;;
60612;SDS011;46443;59.792;17.626;2022-10-16T13:42:59;8.23;;;4.40;;
60612;SDS011;46443;59.792;17.626;2022-10-16T13:45:26;11.13;;;4.07;;
60612;SDS011;46443;59.792;17.626;2022-10-16T13:48:05;8.67;;;4.10;;
60612;SDS011;46443;59.792;17.626;2022-10-16T13:50:31;10.25;;;4.22;;
60612;SDS011;46443;59.792;17.626;2022-10-16T13:53:09;7.83;;;4.07;;
60612;SDS011;46443;59.792;17.626;2022-10-16T13:55:38;7.03;;;3.60;;
60612;SDS011;46443;59.792;17.626;2022-10-16T13:58:08;8.07;;;3.33;;
60612;SDS011;46443;59.792;17.626;2022-10-16T14:00:34;6.18;;;2.90;;
60612;SDS011;46443;59.792;17.626;2022-10-16T14:03:11;6.03;;;2.60;;
60612;SDS011;46443;59.792;17.626;2022-10-16T14:05:43;4.83;;;2.40;;
60612;SDS011;46443;59.792;17.626;2022-10-16T14:08:12;3.73;;;2.00;;
60612;SDS011;46443;59.792;17.626;2022-10-16T14:10:38;3.83;;;2.10;;
60612;SDS011;46443;59.792;17.626;2022-10-16T14:13:05;3.20;;;1.97;;
60612;SDS011;46443;59.792;17.626;2022-10-16T14:15:32;4.50;;;1.90;;
60612;SDS011;46443;59.792;17.626;2022-10-16T14:17:59;6.60;;;2.37;;
60612;SDS011;46443;59.792;17.626;2022-10-16T14:20:26;3.80;;;1.90;;
60612;SDS011;46443;59.792;17.626;2022-10-16T14:25:37;4.13;;;2.17;;
60612;SDS011;46443;59.792;17.626;2022-10-16T14:28:13;2.30;;;1.60;;
60612;SDS011;46443;59.792;17.626;2022-10-16T14:33:30;3.33;;;1.80;;
60612;SDS011;46443;59.792;17.626;2022-10-16T14:38:24;3.27;;;1.70;;
60612;SDS011;46443;59.792;17.626;2022-10-16T14:40:50;3.00;;;1.70;;
60612;SDS011;46443;59.792;17.626;2022-10-16T14:43:20;3.57;;;1.60;;
60612;SDS011;46443;59.792;17.626;2022-10-16T14:45:50;2.23;;;1.40;;
60612;SDS011;46443;59.792;17.626;2022-10-16T14:48:17;3.07;;;1.50;;
60612;SDS011;46443;59.792;17.626;2022-10-16T14:50:44;3.13;;;1.60;;
60612;SDS011;46443;59.792;17.626;2022-10-16T14:53:11;2.33;;;1.40;;
60612;SDS011;46443;59.792;17.626;2022-10-16T14:55:37;3.53;;;1.57;;
60612;SDS011;46443;59.792;17.626;2022-10-16T14:58:04;2.10;;;1.60;;
60612;SDS011;46443;59.792;17.626;2022-10-16T15:00:30;2.90;;;1.50;;
60612;SDS011;46443;59.792;17.626;2022-10-16T15:02:56;3.90;;;1.63;;
60612;SDS011;46443;59.792;17.626;2022-10-16T15:05:23;3.30;;;1.73;;
60612;SDS011;46443;59.792;17.626;2022-10-16T15:07:50;4.10;;;1.83;;
60612;SDS011;46443;59.792;17.626;2022-10-16T15:10:16;4.73;;;2.10;;
60612;SDS011;46443;59.792;17.626;2022-10-16T15:12:43;5.90;;;1.77;;
60612;SDS011;46443;59.792;17.626;2022-10-16T15:15:32;8.10;;;1.93;;
60612;SDS011;46443;59.792;17.626;2022-10-16T15:17:55;5.47;;;1.87;;
60612;SDS011;46443;59.792;17.626;2022-10-16T15:20:25;5.10;;;1.87;;
60612;SDS011;46443;59.792;17.626;2022-10-16T15:27:59;5.33;;;2.40;;
60612;SDS011;46443;59.792;17.626;2022-10-16T15:30:25;5.40;;;2.03;;
60612;SDS011;46443;59.792;17.626;2022-10-16T15:32:52;4.10;;;1.87;;
60612;SDS011;46443;59.792;17.626;2022-10-16T15:35:18;3.53;;;1.80;;
60612;SDS011;46443;59.792;17.626;2022-10-16T15:37:45;3.37;;;1.80;;
60612;SDS011;46443;59.792;17.626;2022-10-16T15:40:12;4.00;;;1.60;;
60612;SDS011;46443;59.792;17.626;2022-10-16T15:42:38;3.70;;;1.80;;
60612;SDS011;46443;59.792;17.626;2022-10-16T15:45:04;5.57;;;1.50;;
60612;SDS011;46443;59.792;17.626;2022-10-16T15:47:31;4.37;;;1.80;;
60612;SDS011;46443;59.792;17.626;2022-10-16T15:49:57;2.10;;;1.53;;
60612;SDS011;46443;59.792;17.626;2022-10-16T15:52:23;2.53;;;1.50;;
60612;SDS011;46443;59.792;17.626;2022-10-16T15:54:49;4.10;;;1.87;;
60612;SDS011;46443;59.792;17.626;2022-10-16T15:57:15;2.47;;;1.50;;
60612;SDS011;46443;59.792;17.626;2022-10-16T15:59:41;2.83;;;1.60;;
60612;SDS011;46443;59.792;17.626;2022-10-16T16:02:08;3.27;;;1.50;;
60612;SDS011;46443;59.792;17.626;2022-10-16T16:04:34;4.60;;;1.50;;
60612;SDS011;46443;59.792;17.626;2022-10-16T16:07:00;3.23;;;1.50;;
60612;SDS011;46443;59.792;17.626;2022-10-16T16:09:28;2.60;;;1.53;;
60612;SDS011;46443;59.792;17.626;2022-10-16T16:11:54;3.67;;;1.60;;
60612;SDS011;46443;59.792;17.626;2022-10-16T16:14:21;3.10;;;1.50;;
60612;SDS011;46443;59.792;17.626;2022-10-16T16:16:47;3.47;;;1.53;;
60612;SDS011;46443;59.792;17.626;2022-10-16T16:19:13;3.53;;;1.60;;
60612;SDS011;46443;59.792;17.626;2022-10-16T16:21:41;4.93;;;1.60;;
60612;SDS011;46443;59.792;17.626;2022-10-16T16:24:07;2.73;;;1.40;;
60612;SDS011;46443;59.792;17.626;2022-10-16T16:26:33;3.67;;;1.37;;
60612;SDS011;46443;59.792;17.626;2022-10-16T16:29:02;3.13;;;1.73;;
60612;SDS011;46443;59.792;17.626;2022-10-16T16:31:29;4.57;;;1.50;;
60612;SDS011;46443;59.792;17.626;2022-10-16T16:33:55;4.07;;;1.63;;
60612;SDS011;46443;59.792;17.626;2022-10-16T16:36:24;5.75;;;1.83;;
60612;SDS011;46443;59.792;17.626;2022-10-16T16:38:51;3.17;;;1.50;;
60612;SDS011;46443;59.792;17.626;2022-10-16T16:41:21;3.77;;;1.67;;